West Ferrisburgh, Vermont
Current Conditions -  °F | °C
As of 1:35 PM on Sunday 21 Dec 2014 (Local Time) from K6B0 Reporting Station
Overcast Overcast  
Wind Chill: 26°   Ceiling: 3000
Heat Index: 26°   Visibility: 10mi
Dew Point: 20°   Wind: 0mph
Humidity: 81%   Direction: NA
Pressure: 30.32"   Gusts: NA
Location:  44.0804°N, 73.3324°W
Report Text: K6B0 211835Z AUTO 00000KT 10SM OVC030 M04/M06 A3032 RMK AO2 T10361064
Loading
Personal Weather Stations






























Interactive Weather Map New forecast layout! Learn more

10-Day Weather Forecast

Advertisements
Track Severe Weather on mobile